createdAt,value
2023-08-18T00:00:14.832Z,48.71
2023-08-18T00:02:44.309Z,49.03
2023-08-18T00:05:11.232Z,49.02
2023-08-18T00:07:38.206Z,48.63
2023-08-18T00:10:05.505Z,48.74
2023-08-18T00:12:33.641Z,48.84
2023-08-18T00:15:00.908Z,48.89
2023-08-18T00:17:28.158Z,48.82
2023-08-18T00:19:55.253Z,48.59
2023-08-18T00:22:22.157Z,48.99
2023-08-18T00:24:49.237Z,49.03
2023-08-18T00:27:16.162Z,49.03
2023-08-18T00:29:43.242Z,48.57
2023-08-18T00:32:10.516Z,48.78
2023-08-18T00:34:38.825Z,48.66
2023-08-18T00:37:05.695Z,48.73
2023-08-18T00:39:32.593Z,48.51
2023-08-18T00:41:59.524Z,48.96
2023-08-18T00:44:27.133Z,48.91
2023-08-18T00:46:54.918Z,48.80
2023-08-18T00:49:22.983Z,48.92
2023-08-18T00:51:50.285Z,48.49
2023-08-18T00:54:18.121Z,48.87
2023-08-18T00:56:48.260Z,48.55
2023-08-18T00:59:15.373Z,48.95
2023-08-18T01:01:43.878Z,48.63
2023-08-18T01:04:13.807Z,48.85
2023-08-18T01:06:41.469Z,48.64
2023-08-18T01:09:08.792Z,48.77
2023-08-18T01:12:15.885Z,48.66
2023-08-18T01:15:08.979Z,48.24
2023-08-18T01:17:46.308Z,48.23
2023-08-18T01:20:14.549Z,48.48
2023-08-18T01:22:42.866Z,48.47
2023-08-18T01:25:09.820Z,48.84
2023-08-18T01:27:36.732Z,48.70
2023-08-18T01:30:05.797Z,48.54
2023-08-18T01:32:47.596Z,48.52
2023-08-18T01:35:17.224Z,48.64
2023-08-18T01:37:45.770Z,48.73
2023-08-18T01:40:17.324Z,48.61
2023-08-18T01:42:44.520Z,47.99
2023-08-18T01:45:12.654Z,48.01
2023-08-18T01:47:39.714Z,48.12
2023-08-18T01:50:07.133Z,48.22
2023-08-18T01:52:34.075Z,48.29
2023-08-18T01:55:02.245Z,48.14
2023-08-18T01:57:29.409Z,48.65
2023-08-18T01:59:57.657Z,48.60
2023-08-18T02:02:24.620Z,48.61
2023-08-18T02:04:51.506Z,48.45
2023-08-18T02:07:18.438Z,48.26
2023-08-18T02:09:45.362Z,48.38
2023-08-18T02:12:12.257Z,48.13
2023-08-18T02:14:39.077Z,48.72
2023-08-18T02:17:06.142Z,48.32
2023-08-18T02:19:33.038Z,48.14
2023-08-18T02:21:59.924Z,48.31
2023-08-18T02:24:26.877Z,48.48
2023-08-18T02:26:53.868Z,48.20
2023-08-18T02:29:20.909Z,48.13
2023-08-18T02:31:48.705Z,47.97
2023-08-18T02:34:16.425Z,48.38
2023-08-18T02:36:43.319Z,48.38
2023-08-18T02:39:10.397Z,48.21
2023-08-18T02:41:37.346Z,48.24
2023-08-18T02:44:04.722Z,48.07
2023-08-18T02:46:31.597Z,48.43
2023-08-18T02:48:58.443Z,48.37
2023-08-18T02:51:25.316Z,48.08
2023-08-18T02:53:52.194Z,48.16
2023-08-18T02:56:19.171Z,48.04
2023-08-18T02:58:46.075Z,48.37
2023-08-18T03:01:13.286Z,48.32
2023-08-18T03:03:40.323Z,48.32
2023-08-18T03:06:09.963Z,48.24
2023-08-18T03:08:38.008Z,48.13
2023-08-18T03:11:06.153Z,48.30
2023-08-18T03:13:33.655Z,48.19
2023-08-18T03:16:01.291Z,48.11
2023-08-18T03:18:28.466Z,48.30
2023-08-18T03:21:01.564Z,47.92
2023-08-18T03:23:30.630Z,47.90
2023-08-18T03:26:06.050Z,48.19
2023-08-18T03:28:37.381Z,48.27
2023-08-18T03:31:09.074Z,47.99
2023-08-18T03:33:37.298Z,47.81
2023-08-18T03:36:07.721Z,47.24
2023-08-18T03:38:34.642Z,47.94
2023-08-18T03:41:08.095Z,47.91
2023-08-18T03:43:36.072Z,47.81
2023-08-18T03:46:30.026Z,47.81
2023-08-18T03:48:59.600Z,47.88
2023-08-18T03:51:28.162Z,47.82
2023-08-18T03:53:55.788Z,48.09
2023-08-18T03:56:22.828Z,48.24
2023-08-18T03:58:49.752Z,48.22
2023-08-18T04:01:17.172Z,47.75
2023-08-18T04:03:46.310Z,47.88
2023-08-18T04:06:14.073Z,47.71
2023-08-18T04:08:44.356Z,48.22
2023-08-18T04:11:12.857Z,48.09
2023-08-18T04:13:40.536Z,48.14
2023-08-18T04:16:07.957Z,48.17
2023-08-18T04:18:35.599Z,48.03
2023-08-18T04:21:04.010Z,47.85
2023-08-18T04:23:31.394Z,47.95
2023-08-18T04:25:58.414Z,47.85
2023-08-18T04:28:25.390Z,47.79
2023-08-18T04:30:52.587Z,47.85
2023-08-18T04:33:36.910Z,47.96
2023-08-18T04:36:05.185Z,47.97
2023-08-18T04:38:33.151Z,47.89
2023-08-18T04:41:04.159Z,48.13
2023-08-18T04:43:32.814Z,48.15
2023-08-18T04:46:00.235Z,47.81
2023-08-18T04:48:27.884Z,48.06
2023-08-18T04:50:55.049Z,48.02
2023-08-18T04:53:21.980Z,48.09
2023-08-18T04:55:48.978Z,47.93
2023-08-18T04:58:16.570Z,47.89
2023-08-18T05:00:44.921Z,47.94
2023-08-18T05:03:13.079Z,47.86
2023-08-18T05:06:10.642Z,48.25
2023-08-18T05:08:41.848Z,47.77
2023-08-18T05:11:11.812Z,48.04
2023-08-18T05:13:42.006Z,47.90
2023-08-18T05:16:09.363Z,47.70
2023-08-18T05:18:37.482Z,48.13
2023-08-18T05:21:04.636Z,47.73
2023-08-18T05:23:32.280Z,47.93
2023-08-18T05:26:01.104Z,47.95
2023-08-18T05:28:33.923Z,47.81
2023-08-18T05:31:01.509Z,47.72
2023-08-18T05:33:29.029Z,47.60
2023-08-18T05:36:00.351Z,47.71
2023-08-18T05:38:28.502Z,47.66
2023-08-18T05:41:14.357Z,47.85
2023-08-18T05:43:42.506Z,47.95
2023-08-18T05:46:10.097Z,48.05
2023-08-18T05:48:37.484Z,47.80
2023-08-18T05:51:04.932Z,47.73
2023-08-18T05:53:32.434Z,47.70
2023-08-18T05:55:59.845Z,48.02
2023-08-18T05:58:27.494Z,47.99
2023-08-18T06:00:54.550Z,48.24
2023-08-18T06:03:22.072Z,48.22
2023-08-18T06:05:50.304Z,48.24
2023-08-18T06:08:17.604Z,47.96
2023-08-18T06:10:44.698Z,48.03
2023-08-18T06:13:11.628Z,48.07
2023-08-18T06:15:39.501Z,48.03
2023-08-18T06:18:06.828Z,48.16
2023-08-18T06:20:33.758Z,48.15
2023-08-18T06:23:00.683Z,48.28
2023-08-18T06:25:27.973Z,48.29
2023-08-18T06:27:55.201Z,48.30
2023-08-18T06:30:22.132Z,48.18
2023-08-18T06:32:49.207Z,48.34
2023-08-18T06:35:16.284Z,48.30
2023-08-18T06:37:43.243Z,48.42
2023-08-18T06:40:10.672Z,48.35
2023-08-18T06:42:37.564Z,48.45
2023-08-18T06:45:06.555Z,48.56
2023-08-18T06:47:35.807Z,48.60
2023-08-18T06:50:06.937Z,48.37
2023-08-18T06:52:34.877Z,48.61
2023-08-18T06:55:03.144Z,48.25
2023-08-18T06:57:30.516Z,48.31
2023-08-18T06:59:57.388Z,48.29
2023-08-18T07:02:24.497Z,48.43
2023-08-18T07:04:52.826Z,48.54
2023-08-18T07:07:19.691Z,48.67
2023-08-18T07:09:46.577Z,48.14
2023-08-18T07:12:13.602Z,48.73
2023-08-18T07:14:40.545Z,48.18
2023-08-18T07:17:07.446Z,48.40
2023-08-18T07:19:34.361Z,48.43
2023-08-18T07:22:01.380Z,48.66
2023-08-18T07:24:29.830Z,48.82
2023-08-18T07:26:56.980Z,48.48
2023-08-18T07:29:24.275Z,48.74
2023-08-18T07:31:51.269Z,48.31
2023-08-18T07:34:18.232Z,48.51
2023-08-18T07:36:45.153Z,48.43
2023-08-18T07:39:12.022Z,48.60
2023-08-18T07:41:42.224Z,48.30
2023-08-18T07:44:09.708Z,48.61
2023-08-18T07:46:37.136Z,48.62
2023-08-18T07:49:05.248Z,48.33
2023-08-18T07:51:32.736Z,48.58
2023-08-18T07:53:59.627Z,48.56
2023-08-18T07:56:26.537Z,48.66
2023-08-18T07:58:55.849Z,48.79
2023-08-18T08:01:24.551Z,48.60
2023-08-18T08:03:51.588Z,48.92
2023-08-18T08:06:18.600Z,48.82
2023-08-18T08:08:45.543Z,48.75
2023-08-18T08:11:13.813Z,48.53
2023-08-18T08:13:41.193Z,48.72
2023-08-18T08:16:08.787Z,48.58
2023-08-18T08:18:35.773Z,48.60
2023-08-18T08:21:02.779Z,48.79
2023-08-18T08:23:29.715Z,48.71
2023-08-18T08:25:56.719Z,48.79
2023-08-18T08:28:23.778Z,48.44
2023-08-18T08:30:53.635Z,48.34
2023-08-18T08:33:20.651Z,48.48
2023-08-18T08:35:47.631Z,48.52
2023-08-18T08:38:14.564Z,48.70
2023-08-18T08:40:43.303Z,48.30
2023-08-18T08:43:10.580Z,48.40
2023-08-18T08:45:40.403Z,48.53
2023-08-18T08:48:11.961Z,48.36
2023-08-18T08:50:45.326Z,48.09
2023-08-18T08:53:15.004Z,48.52
2023-08-18T08:55:45.768Z,48.35
2023-08-18T08:58:14.889Z,48.69
2023-08-18T09:00:43.266Z,48.47
2023-08-18T09:03:10.921Z,48.76
2023-08-18T09:05:37.885Z,49.04
2023-08-18T09:08:05.383Z,48.64
2023-08-18T09:10:34.276Z,48.77
2023-08-18T09:13:01.535Z,48.70
2023-08-18T09:15:29.001Z,48.61
2023-08-18T09:17:58.049Z,48.74
2023-08-18T09:20:26.593Z,48.84
2023-08-18T09:22:58.349Z,48.89
2023-08-18T09:25:28.308Z,48.84
2023-08-18T09:27:55.948Z,48.92
2023-08-18T09:30:25.366Z,48.92
2023-08-18T09:32:53.107Z,49.12
2023-08-18T09:35:23.299Z,48.78
2023-08-18T09:37:58.400Z,48.65
2023-08-18T09:40:27.135Z,49.08
2023-08-18T09:42:54.124Z,48.75
2023-08-18T09:45:27.643Z,48.79
2023-08-18T09:47:57.540Z,48.88
2023-08-18T09:50:32.131Z,49.16
2023-08-18T09:53:01.908Z,48.85
2023-08-18T09:55:43.622Z,48.92
2023-08-18T09:58:28.868Z,49.17
2023-08-18T10:00:58.038Z,49.15
2023-08-18T10:03:29.560Z,48.72
2023-08-18T10:05:57.286Z,48.65
2023-08-18T10:08:27.005Z,49.19
2023-08-18T10:10:53.920Z,48.94
2023-08-18T10:13:21.807Z,49.23
2023-08-18T10:15:49.683Z,48.78
2023-08-18T10:18:18.178Z,48.81
2023-08-18T10:20:53.798Z,49.20
2023-08-18T10:23:24.566Z,49.17
2023-08-18T10:25:53.302Z,48.86
2023-08-18T10:28:22.200Z,48.87
2023-08-18T10:30:58.088Z,48.78
2023-08-18T10:33:38.790Z,49.18
2023-08-18T10:36:07.583Z,49.27
2023-08-18T10:38:37.335Z,48.96
2023-08-18T10:41:04.763Z,49.18
2023-08-18T10:43:54.491Z,49.07
2023-08-18T10:46:25.563Z,49.30
2023-08-18T10:48:52.578Z,48.98
2023-08-18T10:51:19.572Z,49.11
2023-08-18T10:53:46.684Z,49.00
2023-08-18T10:56:13.672Z,49.18
2023-08-18T10:58:40.542Z,49.05
2023-08-18T11:01:10.336Z,49.24
2023-08-18T11:03:37.541Z,49.23
2023-08-18T11:06:04.538Z,49.09
2023-08-18T11:08:31.774Z,49.10
2023-08-18T11:10:58.665Z,49.15
2023-08-18T11:13:29.850Z,49.60
2023-08-18T11:15:58.573Z,49.52
2023-08-18T11:18:28.774Z,49.53
2023-08-18T11:20:56.806Z,49.38
2023-08-18T11:23:23.780Z,49.56
2023-08-18T11:25:51.830Z,49.36
2023-08-18T11:28:19.463Z,49.34
2023-08-18T11:30:46.451Z,49.82
2023-08-18T11:33:13.565Z,49.69
2023-08-18T11:35:40.504Z,49.53
2023-08-18T11:38:09.529Z,49.47
2023-08-18T11:40:39.320Z,49.60
2023-08-18T11:43:13.720Z,49.97
2023-08-18T11:45:41.292Z,49.57
2023-08-18T11:48:09.048Z,49.59
2023-08-18T11:50:38.760Z,50.02
2023-08-18T11:53:08.338Z,50.07
2023-08-18T11:55:41.470Z,49.97
2023-08-18T11:58:14.238Z,49.58
2023-08-18T12:00:43.470Z,50.00
2023-08-18T12:03:30.507Z,49.68
2023-08-18T12:05:59.732Z,49.66
2023-08-18T12:08:30.241Z,49.65
2023-08-18T12:10:58.923Z,49.96
2023-08-18T12:13:31.641Z,50.14
2023-08-18T12:15:58.861Z,50.06
2023-08-18T12:18:25.822Z,49.75
2023-08-18T12:20:52.776Z,49.74
2023-08-18T12:23:19.927Z,49.90
2023-08-18T12:25:46.865Z,49.90
2023-08-18T12:28:14.357Z,50.17
2023-08-18T12:30:41.217Z,50.23
2023-08-18T12:33:08.183Z,50.25
2023-08-18T12:35:35.148Z,50.03
2023-08-18T12:38:02.566Z,50.30
2023-08-18T12:40:29.469Z,49.95
2023-08-18T12:42:57.324Z,50.25
2023-08-18T12:45:24.357Z,49.93
2023-08-18T12:47:51.324Z,50.19
2023-08-18T12:50:18.353Z,50.54
2023-08-18T12:52:45.309Z,50.36
2023-08-18T12:55:12.430Z,49.97
2023-08-18T12:57:39.353Z,49.99
2023-08-18T13:00:07.366Z,50.03
2023-08-18T13:02:34.474Z,50.08
2023-08-18T13:05:02.055Z,50.23
2023-08-18T13:07:29.369Z,50.00
2023-08-18T13:09:56.247Z,50.06
2023-08-18T13:12:23.622Z,50.51
2023-08-18T13:14:50.716Z,50.45
2023-08-18T13:17:17.664Z,50.53
2023-08-18T13:19:48.923Z,50.08
2023-08-18T13:22:16.419Z,50.63
2023-08-18T13:24:43.686Z,50.64
2023-08-18T13:27:10.964Z,50.17
2023-08-18T13:29:38.385Z,50.25
2023-08-18T13:32:06.019Z,50.59
2023-08-18T13:34:32.954Z,50.47
2023-08-18T13:36:59.935Z,50.56
2023-08-18T13:39:26.923Z,50.60
2023-08-18T13:41:53.818Z,50.30
2023-08-18T13:44:20.824Z,50.65
2023-08-18T13:46:47.737Z,50.35
2023-08-18T13:49:14.700Z,50.45
2023-08-18T13:51:41.944Z,50.71
2023-08-18T13:54:13.333Z,50.89
2023-08-18T13:56:43.440Z,50.71
2023-08-18T13:59:11.865Z,50.69
2023-08-18T14:01:38.967Z,50.44
2023-08-18T14:04:06.313Z,50.77
2023-08-18T14:06:33.235Z,51.05
2023-08-18T14:09:01.942Z,50.82
2023-08-18T14:11:29.119Z,50.77
2023-08-18T14:13:56.315Z,50.68
2023-08-18T14:16:23.290Z,50.96
2023-08-18T14:18:50.558Z,50.69
2023-08-18T14:21:17.432Z,51.09
2023-08-18T14:23:44.359Z,51.04
2023-08-18T14:26:11.319Z,51.03
2023-08-18T14:28:38.697Z,51.14
2023-08-18T14:31:10.762Z,50.87
2023-08-18T14:33:46.164Z,51.14
2023-08-18T14:36:16.400Z,50.84
2023-08-18T14:38:44.876Z,51.15
2023-08-18T14:41:12.200Z,51.11
2023-08-18T14:43:40.274Z,51.30
2023-08-18T14:46:07.473Z,51.16
2023-08-18T14:48:34.825Z,51.02
2023-08-18T14:51:02.261Z,50.83
2023-08-18T14:53:29.259Z,50.96
2023-08-18T14:55:56.243Z,50.94
2023-08-18T14:58:28.377Z,51.12
2023-08-18T15:00:55.965Z,51.43
2023-08-18T15:03:23.168Z,51.06
2023-08-18T15:05:50.791Z,51.47
2023-08-18T15:08:18.060Z,51.30
2023-08-18T15:10:46.673Z,51.13
2023-08-18T15:13:13.823Z,51.25
2023-08-18T15:15:40.828Z,51.17
2023-08-18T15:18:07.940Z,51.61
2023-08-18T15:20:34.886Z,51.31
2023-08-18T15:23:01.995Z,51.27
2023-08-18T15:25:30.691Z,51.54
2023-08-18T15:27:57.662Z,51.60
2023-08-18T15:30:24.554Z,51.68
2023-08-18T15:32:51.465Z,51.66
2023-08-18T15:35:18.468Z,51.65
2023-08-18T15:37:45.463Z,51.82
2023-08-18T15:40:12.729Z,51.76
2023-08-18T15:42:39.715Z,51.53
2023-08-18T15:45:07.568Z,51.86
2023-08-18T15:47:34.602Z,52.10
2023-08-18T15:50:01.935Z,51.83
2023-08-18T15:52:28.770Z,51.88
2023-08-18T15:54:55.662Z,51.88
2023-08-18T15:57:22.647Z,52.25
2023-08-18T15:59:49.543Z,52.06
2023-08-18T16:02:16.492Z,52.48
2023-08-18T16:04:43.444Z,52.49
2023-08-18T16:07:10.450Z,52.10
2023-08-18T16:09:37.381Z,52.57
2023-08-18T16:12:04.760Z,52.71
2023-08-18T16:17:01.634Z,52.48
2023-08-18T16:19:29.593Z,52.46
2023-08-18T16:21:56.616Z,52.82
2023-08-18T16:24:23.625Z,52.53
2023-08-18T16:26:52.514Z,52.64
2023-08-18T16:29:19.708Z,52.99
2023-08-18T16:31:46.801Z,52.98
2023-08-18T16:34:13.733Z,53.00
2023-08-18T16:36:40.669Z,53.17
2023-08-18T16:39:07.534Z,52.96
2023-08-18T16:41:34.483Z,52.85
2023-08-18T16:44:01.505Z,52.95
2023-08-18T16:46:28.432Z,52.70
2023-08-18T16:48:55.910Z,52.92
2023-08-18T16:51:22.870Z,52.84
2023-08-18T16:53:49.819Z,52.88
2023-08-18T16:56:16.827Z,52.97
2023-08-18T16:58:43.779Z,53.37
2023-08-18T17:01:10.836Z,53.52
2023-08-18T17:03:37.889Z,53.52
2023-08-18T17:06:04.908Z,53.16
2023-08-18T17:08:31.913Z,53.58
2023-08-18T17:11:00.354Z,53.50
2023-08-18T17:13:27.736Z,53.29
2023-08-18T17:15:54.775Z,53.32
2023-08-18T17:18:24.604Z,53.70
2023-08-18T17:20:53.150Z,53.40
2023-08-18T17:23:21.445Z,53.39
2023-08-18T17:25:50.059Z,53.69
2023-08-18T17:28:17.703Z,53.99
2023-08-18T17:30:45.977Z,53.53
2023-08-18T17:33:14.496Z,53.80
2023-08-18T17:35:44.803Z,53.85
2023-08-18T17:38:11.894Z,53.88
2023-08-18T17:40:39.769Z,53.52
2023-08-18T17:43:06.739Z,54.12
2023-08-18T17:45:36.115Z,54.04
2023-08-18T17:48:03.413Z,54.16
2023-08-18T17:50:30.382Z,54.01
2023-08-18T17:52:57.975Z,53.76
2023-08-18T17:55:25.647Z,53.82
2023-08-18T17:57:52.641Z,54.03
2023-08-18T18:00:19.992Z,54.00
2023-08-18T18:02:47.402Z,54.07
2023-08-18T18:05:19.460Z,54.07
2023-08-18T18:07:46.407Z,54.01
2023-08-18T18:10:13.433Z,54.51
2023-08-18T18:12:40.910Z,54.46
2023-08-18T18:15:08.791Z,54.34
2023-08-18T18:17:36.936Z,54.11
2023-08-18T18:20:04.804Z,54.12
2023-08-18T18:22:32.629Z,54.59
2023-08-18T18:24:59.591Z,54.20
2023-08-18T18:27:26.531Z,54.21
2023-08-18T18:29:53.802Z,54.56
2023-08-18T18:32:20.780Z,54.52
2023-08-18T18:34:47.751Z,54.13
2023-08-18T18:37:14.626Z,54.38
2023-08-18T18:39:42.030Z,54.73
2023-08-18T18:42:09.548Z,54.51
2023-08-18T18:44:37.286Z,54.33
2023-08-18T18:47:05.068Z,54.34
2023-08-18T18:49:32.096Z,54.84
2023-08-18T18:51:59.084Z,54.45
2023-08-18T18:54:26.211Z,54.76
2023-08-18T18:56:53.153Z,54.89
2023-08-18T18:59:20.291Z,54.88
2023-08-18T19:01:47.185Z,54.91
2023-08-18T19:04:14.222Z,54.54
2023-08-18T19:06:41.908Z,54.87
2023-08-18T19:09:10.868Z,54.91
2023-08-18T19:11:37.767Z,54.93
2023-08-18T19:14:04.759Z,54.60
2023-08-18T19:16:31.646Z,54.96
2023-08-18T19:18:58.575Z,54.54
2023-08-18T19:21:28.750Z,54.49
2023-08-18T19:23:55.994Z,54.62
2023-08-18T19:26:23.533Z,55.13
2023-08-18T19:28:55.324Z,55.04
2023-08-18T19:31:23.026Z,54.70
2023-08-18T19:33:50.020Z,54.64
2023-08-18T19:36:19.999Z,54.63
2023-08-18T19:38:47.566Z,54.81
2023-08-18T19:41:14.717Z,54.61
2023-08-18T19:43:41.729Z,54.61
2023-08-18T19:46:08.827Z,55.12
2023-08-18T19:48:36.079Z,55.11
2023-08-18T19:51:04.136Z,54.87
2023-08-18T19:53:31.205Z,55.25
2023-08-18T19:55:58.239Z,55.22
2023-08-18T19:58:25.774Z,54.97
2023-08-18T20:00:52.765Z,55.00
2023-08-18T20:03:19.748Z,55.17
2023-08-18T20:05:46.756Z,55.05
2023-08-18T20:08:13.928Z,55.06
2023-08-18T20:10:42.177Z,55.25
2023-08-18T20:13:09.108Z,55.36
2023-08-18T20:15:36.069Z,55.46
2023-08-18T20:18:03.469Z,55.11
2023-08-18T20:20:30.579Z,55.39
2023-08-18T20:22:58.859Z,55.46
2023-08-18T20:25:27.020Z,55.13
2023-08-18T20:27:54.399Z,55.03
2023-08-18T20:30:23.202Z,55.54
2023-08-18T20:32:55.126Z,55.38
2023-08-18T20:35:25.819Z,55.65
2023-08-18T20:37:53.556Z,55.35
2023-08-18T20:40:20.886Z,55.33
2023-08-18T20:42:47.748Z,55.39
2023-08-18T20:45:14.686Z,55.48
2023-08-18T20:47:41.647Z,56.09
2023-08-18T20:50:11.479Z,55.76
2023-08-18T20:52:38.768Z,56.43
2023-08-18T20:55:08.338Z,56.55
2023-08-18T20:57:35.556Z,56.30
2023-08-18T21:00:03.939Z,56.67
2023-08-18T21:02:31.579Z,56.84
2023-08-18T21:05:00.454Z,57.14
2023-08-18T21:07:27.646Z,57.07
2023-08-18T21:09:54.639Z,57.23
2023-08-18T21:12:21.767Z,58.01
2023-08-18T21:14:48.639Z,57.56
2023-08-18T21:17:15.780Z,58.13
2023-08-18T21:19:42.749Z,58.39
2023-08-18T21:22:09.742Z,58.15
2023-08-18T21:24:36.726Z,58.33
2023-08-18T21:27:04.037Z,58.42
2023-08-18T21:29:31.072Z,58.19
2023-08-18T21:31:58.066Z,58.16
2023-08-18T21:34:25.223Z,57.55
2023-08-18T21:36:52.122Z,57.80
2023-08-18T21:39:19.441Z,57.35
2023-08-18T21:41:46.494Z,57.40
2023-08-18T21:44:13.438Z,56.87
2023-08-18T21:46:40.331Z,57.20
2023-08-18T21:49:07.754Z,56.94
2023-08-18T21:51:34.819Z,57.08
2023-08-18T21:54:01.929Z,56.95
2023-08-18T21:56:28.974Z,57.15
2023-08-18T21:58:55.918Z,57.15
2023-08-18T22:01:22.941Z,56.77
2023-08-18T22:03:51.834Z,57.32
2023-08-18T22:06:18.952Z,57.32
2023-08-18T22:08:45.922Z,57.08
2023-08-18T22:11:13.965Z,56.83
2023-08-18T22:13:41.523Z,57.07
2023-08-18T22:16:08.594Z,56.81
2023-08-18T22:18:37.295Z,57.06
2023-08-18T22:21:04.591Z,56.97
2023-08-18T22:23:34.781Z,57.46
2023-08-18T22:26:01.899Z,56.98
2023-08-18T22:28:29.396Z,57.12
2023-08-18T22:30:56.564Z,56.94
2023-08-18T22:33:24.884Z,57.50
2023-08-18T22:35:58.968Z,57.08
2023-08-18T22:38:26.067Z,57.18
2023-08-18T22:41:04.127Z,57.22
2023-08-18T22:43:31.931Z,57.31
2023-08-18T22:46:01.187Z,57.59
2023-08-18T22:48:28.219Z,57.15
2023-08-18T22:50:55.058Z,57.59
2023-08-18T22:53:22.005Z,57.19
2023-08-18T22:55:49.093Z,57.09
2023-08-18T22:58:16.062Z,57.15
2023-08-18T23:00:43.216Z,57.22
2023-08-18T23:03:10.112Z,57.50
2023-08-18T23:05:37.153Z,57.45
2023-08-18T23:08:04.501Z,57.65
2023-08-18T23:10:31.393Z,57.34
2023-08-18T23:12:58.319Z,57.68
2023-08-18T23:15:27.028Z,57.56
2023-08-18T23:17:54.108Z,57.47
2023-08-18T23:20:21.127Z,57.74
2023-08-18T23:22:48.013Z,57.22
2023-08-18T23:25:15.030Z,57.36
2023-08-18T23:27:42.015Z,57.61
2023-08-18T23:30:10.679Z,57.21
2023-08-18T23:32:37.611Z,57.33
2023-08-18T23:35:05.356Z,57.33
2023-08-18T23:37:32.426Z,57.30
2023-08-18T23:39:59.750Z,57.32
2023-08-18T23:42:26.624Z,57.67
2023-08-18T23:44:53.503Z,57.30
2023-08-18T23:47:20.456Z,57.53
2023-08-18T23:49:47.329Z,57.43
2023-08-18T23:52:14.238Z,57.49
2023-08-18T23:54:41.167Z,57.85
2023-08-18T23:57:08.041Z,57.80
2023-08-18T23:59:34.963Z,57.43
